Time;durP1;ratioP1;P1;durP2;ratioP2;P2;SDS_P1;SDS_P2;PMS_P1;PMS_P2;Temp;Humidity;BMP_temperature;BMP_pressure;BME280_temperature;BME280_humidity;BME280_pressure;Samples;Min_cycle;Max_cycle;Signal;HPM_P1;HPM_P2
2021/08/30 00:00:51;;;;;;;3.60;3.10;;;13.40;99.90;;;;;;477964;248;28663;-70
2021/08/30 00:02:54;;;;;;;2.43;2.23;;;;;;;;;;477993;249;28353;-70
2021/08/30 00:04:55;;;;;;;2.50;2.30;;;13.40;99.90;;;;;;477997;248;26576;-70
2021/08/30 00:06:56;;;;;;;2.70;2.50;;;13.40;99.90;;;;;;477987;248;29155;-71
2021/08/30 00:08:57;;;;;;;2.77;2.57;;;13.50;99.90;;;;;;477981;249;28750;-70
2021/08/30 00:10:59;;;;;;;2.53;2.40;;;13.50;99.90;;;;;;477963;249;28916;-70
2021/08/30 00:13:00;;;;;;;2.90;2.70;;;13.50;99.90;;;;;;477982;248;28782;-70
2021/08/30 00:15:01;;;;;;;2.90;2.70;;;13.50;99.90;;;;;;477969;248;28365;-70
2021/08/30 00:17:02;;;;;;;3.27;3.07;;;13.50;99.90;;;;;;477982;248;28237;-70
2021/08/30 00:19:04;;;;;;;2.77;2.57;;;13.50;99.90;;;;;;477979;249;28407;-70
2021/08/30 00:21:05;;;;;;;3.30;3.00;;;13.50;99.90;;;;;;477995;248;28340;-70
2021/08/30 00:23:06;;;;;;;3.00;2.80;;;13.50;99.90;;;;;;477958;248;28871;-70
2021/08/30 00:25:07;;;;;;;2.80;2.60;;;13.50;99.90;;;;;;478001;248;28649;-70
2021/08/30 00:27:09;;;;;;;2.70;2.50;;;13.40;99.90;;;;;;478000;248;28575;-70
2021/08/30 00:29:10;;;;;;;2.70;2.50;;;13.40;99.90;;;;;;477979;247;28665;-70
2021/08/30 00:31:11;;;;;;;2.50;2.30;;;13.40;99.90;;;;;;477955;248;28871;-70
2021/08/30 00:33:12;;;;;;;2.43;2.23;;;13.40;99.90;;;;;;477986;249;29321;-70
2021/08/30 00:35:14;;;;;;;2.37;2.17;;;13.40;99.90;;;;;;478016;249;28973;-70
2021/08/30 00:37:15;;;;;;;2.83;2.63;;;13.40;99.90;;;;;;478026;249;28331;-70
2021/08/30 00:39:16;;;;;;;2.90;2.70;;;13.40;99.90;;;;;;478005;248;28200;-70
2021/08/30 00:41:17;;;;;;;3.43;3.13;;;13.40;99.90;;;;;;477999;248;28441;-70
2021/08/30 00:43:19;;;;;;;2.47;2.27;;;13.40;99.90;;;;;;478008;249;28511;-70
2021/08/30 00:45:20;;;;;;;2.60;2.40;;;13.40;99.90;;;;;;477997;248;28672;-70
2021/08/30 00:47:21;;;;;;;3.27;2.97;;;13.40;99.90;;;;;;477996;248;28271;-70
2021/08/30 00:49:22;;;;;;;2.70;2.50;;;13.40;99.90;;;;;;477980;248;28838;-70
2021/08/30 00:51:24;;;;;;;3.00;2.80;;;13.40;99.90;;;;;;477953;248;28312;-70
2021/08/30 00:53:25;;;;;;;2.87;2.67;;;13.40;99.90;;;;;;478006;248;28869;-70
2021/08/30 00:55:26;;;;;;;2.23;2.13;;;13.40;99.90;;;;;;477971;248;29233;-70
2021/08/30 00:57:27;;;;;;;3.00;2.80;;;13.40;99.90;;;;;;477986;248;28837;-70
2021/08/30 00:59:29;;;;;;;3.00;2.70;;;13.40;99.90;;;;;;477977;249;28762;-70
2021/08/30 01:01:30;;;;;;;3.20;2.90;;;13.40;99.90;;;;;;477958;248;28336;-71
2021/08/30 01:03:31;;;;;;;3.30;3.10;;;13.40;99.90;;;;;;477943;248;28358;-70
2021/08/30 01:05:32;;;;;;;3.10;2.90;;;13.40;99.90;;;;;;477789;248;28925;-70
2021/08/30 01:07:34;;;;;;;2.57;2.37;;;13.40;99.90;;;;;;477765;248;28965;-70
2021/08/30 01:09:35;;;;;;;2.57;2.30;;;13.40;99.90;;;;;;477726;249;28315;-70
2021/08/30 01:11:36;;;;;;;2.80;2.60;;;13.40;99.90;;;;;;477910;248;28355;-70
2021/08/30 01:13:38;;;;;;;3.47;3.20;;;13.40;99.90;;;;;;477967;249;28353;-70
2021/08/30 01:15:43;;;;;;;3.13;2.93;;;13.40;99.90;;;;;;477830;248;28290;-70
2021/08/30 01:17:43;;;;;;;3.00;2.80;;;13.40;99.90;;;;;;477896;249;28208;-70
2021/08/30 01:19:44;;;;;;;2.67;2.47;;;13.40;99.90;;;;;;477965;248;28435;-70
2021/08/30 01:21:45;;;;;;;3.17;2.87;;;13.40;99.90;;;;;;477923;248;28915;-70
2021/08/30 01:23:46;;;;;;;3.17;2.90;;;13.30;99.90;;;;;;477983;248;28918;-70
2021/08/30 01:25:48;;;;;;;3.23;2.93;;;13.40;99.90;;;;;;477982;248;28380;-70
2021/08/30 01:27:49;;;;;;;2.77;2.57;;;13.40;99.90;;;;;;477948;249;28555;-70
2021/08/30 01:29:50;;;;;;;3.00;2.80;;;13.40;99.90;;;;;;477972;249;28238;-70
2021/08/30 01:31:51;;;;;;;3.00;2.80;;;13.40;99.90;;;;;;477942;248;30323;-70
2021/08/30 01:33:53;;;;;;;2.60;2.40;;;13.40;99.90;;;;;;477995;249;28787;-70
2021/08/30 01:35:54;;;;;;;3.03;2.73;;;13.40;99.90;;;;;;478001;249;28866;-70
2021/08/30 01:37:55;;;;;;;2.70;2.50;;;13.40;99.90;;;;;;477960;248;28625;-70
2021/08/30 01:39:57;;;;;;;3.00;2.80;;;13.40;99.90;;;;;;477977;248;28482;-71
2021/08/30 01:41:58;;;;;;;3.00;2.80;;;13.50;99.90;;;;;;477951;248;28371;-70
2021/08/30 01:43:59;;;;;;;3.13;2.93;;;13.50;99.90;;;;;;478012;248;28195;-70
2021/08/30 01:46:00;;;;;;;2.73;2.53;;;13.50;99.90;;;;;;477998;248;28372;-70
2021/08/30 01:48:01;;;;;;;3.07;2.87;;;13.40;99.90;;;;;;477971;248;28391;-70
2021/08/30 01:50:04;;;;;;;2.40;2.30;;;13.50;99.90;;;;;;477978;248;28127;-70
2021/08/30 01:52:04;;;;;;;3.03;2.80;;;13.40;99.90;;;;;;477934;248;28404;-70
2021/08/30 01:54:05;;;;;;;3.03;2.83;;;13.40;99.90;;;;;;478018;248;28191;-70
2021/08/30 01:56:09;;;;;;;3.10;2.90;;;;;;;;;;478013;249;28711;-70
2021/08/30 02:02:30;;;;;;;4.37;2.80;;;13.40;99.90;;;;;;477984;249;28845;-70
2021/08/30 02:04:31;;;;;;;3.40;3.10;;;13.40;99.90;;;;;;478006;248;28903;-70
2021/08/30 02:06:32;;;;;;;3.13;2.83;;;13.40;99.90;;;;;;477994;248;28877;-70
2021/08/30 02:08:34;;;;;;;2.90;2.70;;;13.40;99.90;;;;;;478000;248;28300;-70
2021/08/30 02:10:35;;;;;;;2.97;2.77;;;13.40;99.90;;;;;;478022;248;28397;-70
2021/08/30 02:12:36;;;;;;;3.83;3.00;;;13.50;99.90;;;;;;477981;248;28659;-70
2021/08/30 02:14:37;;;;;;;3.27;2.97;;;13.40;99.90;;;;;;478008;248;28704;-70
2021/08/30 02:16:39;;;;;;;3.00;2.80;;;13.40;99.90;;;;;;478003;248;28648;-70
2021/08/30 02:18:40;;;;;;;4.23;2.43;;;13.40;99.90;;;;;;478019;248;28750;-70
2021/08/30 02:20:41;;;;;;;3.17;2.97;;;13.50;99.90;;;;;;478026;248;28286;-71
2021/08/30 02:22:42;;;;;;;3.40;3.10;;;13.50;99.90;;;;;;478015;248;28275;-70
2021/08/30 02:24:44;;;;;;;3.00;2.80;;;13.50;99.90;;;;;;478023;248;28397;-70
2021/08/30 02:26:45;;;;;;;3.00;2.77;;;13.50;99.90;;;;;;477996;248;28323;-70
2021/08/30 02:28:46;;;;;;;3.43;3.13;;;13.50;99.90;;;;;;477997;248;28443;-70
2021/08/30 02:30:49;;;;;;;3.63;3.33;;;;;;;;;;478014;248;28364;-70
2021/08/30 02:32:50;;;;;;;4.33;3.80;;;13.50;99.90;;;;;;477998;249;26690;-70
2021/08/30 02:34:51;;;;;;;3.40;3.10;;;13.40;99.90;;;;;;477980;248;28358;-70
2021/08/30 02:36:52;;;;;;;3.43;3.13;;;13.40;99.90;;;;;;477986;248;28232;-70
2021/08/30 02:38:53;;;;;;;3.50;3.20;;;13.40;99.90;;;;;;478016;248;28887;-71
2021/08/30 02:40:55;;;;;;;3.30;3.10;;;13.50;99.90;;;;;;478018;248;28217;-70
2021/08/30 02:42:56;;;;;;;4.17;3.83;;;13.50;99.90;;;;;;477996;248;28993;-70
2021/08/30 02:44:57;;;;;;;3.80;3.50;;;13.50;99.90;;;;;;477976;248;28208;-70
2021/08/30 02:46:58;;;;;;;3.40;3.20;;;13.50;99.90;;;;;;477997;248;28368;-70
2021/08/30 02:49:00;;;;;;;3.53;3.23;;;13.50;99.90;;;;;;478010;248;28907;-70
2021/08/30 02:51:01;;;;;;;5.77;3.30;;;13.50;99.90;;;;;;477995;248;28742;-70
2021/08/30 02:53:02;;;;;;;3.40;3.10;;;13.50;99.90;;;;;;477969;248;28827;-70
2021/08/30 02:55:03;;;;;;;3.60;3.30;;;13.50;99.90;;;;;;477945;248;28796;-70
2021/08/30 02:57:05;;;;;;;3.80;3.40;;;13.50;99.90;;;;;;478016;248;28207;-70
2021/08/30 02:59:06;;;;;;;3.03;2.83;;;13.50;99.90;;;;;;477988;248;28877;-70
2021/08/30 03:01:07;;;;;;;3.77;3.47;;;13.50;99.90;;;;;;478010;248;28222;-71
2021/08/30 03:03:09;;;;;;;3.20;3.00;;;13.50;99.90;;;;;;477983;248;28234;-70
2021/08/30 03:05:11;;;;;;;4.00;3.70;;;13.50;99.90;;;;;;477976;249;28441;-70
2021/08/30 03:07:11;;;;;;;3.50;3.20;;;13.50;99.90;;;;;;477991;249;28415;-70
2021/08/30 03:09:12;;;;;;;5.13;3.30;;;13.50;99.90;;;;;;477999;248;28614;-70
2021/08/30 03:11:13;;;;;;;3.60;3.30;;;13.50;99.90;;;;;;477959;249;28847;-70
2021/08/30 03:13:16;;;;;;;4.50;3.80;;;;;;;;;;477966;247;29423;-70
2021/08/30 03:15:17;;;;;;;3.90;3.60;;;13.50;99.90;;;;;;477998;248;27403;-70
2021/08/30 03:17:18;;;;;;;4.40;3.47;;;13.50;99.90;;;;;;478000;248;28872;-70
2021/08/30 03:19:20;;;;;;;3.67;3.37;;;13.50;99.90;;;;;;477992;248;28191;-70
2021/08/30 03:21:21;;;;;;;3.57;3.27;;;13.50;99.90;;;;;;477970;248;28677;-70
2021/08/30 03:23:22;;;;;;;3.40;3.10;;;13.50;99.90;;;;;;477956;248;29646;-70
2021/08/30 03:25:23;;;;;;;3.47;3.27;;;13.60;99.90;;;;;;477997;248;29011;-70
2021/08/30 03:27:25;;;;;;;4.50;4.10;;;13.60;99.90;;;;;;478006;248;28843;-71
2021/08/30 03:29:26;;;;;;;3.87;3.57;;;13.60;99.90;;;;;;477984;248;28788;-70
2021/08/30 03:31:27;;;;;;;3.30;3.10;;;13.60;99.90;;;;;;477983;248;28278;-71
2021/08/30 03:33:28;;;;;;;5.30;3.63;;;13.60;99.90;;;;;;477990;248;28304;-70
2021/08/30 03:35:30;;;;;;;3.60;3.30;;;13.60;99.90;;;;;;478008;248;28256;-70
2021/08/30 03:37:31;;;;;;;3.60;3.30;;;13.60;99.90;;;;;;478026;248;28357;-70
2021/08/30 03:39:32;;;;;;;4.13;3.43;;;13.60;99.90;;;;;;477993;248;28305;-70
2021/08/30 03:41:35;;;;;;;3.80;3.50;;;;;;;;;;477996;248;28442;-70
2021/08/30 03:43:36;;;;;;;4.37;3.97;;;13.60;99.90;;;;;;478004;249;26959;-70
2021/08/30 03:45:37;;;;;;;4.30;3.90;;;13.60;99.90;;;;;;477997;248;28415;-70
2021/08/30 03:47:38;;;;;;;3.80;3.50;;;13.60;99.90;;;;;;478003;248;28373;-70
2021/08/30 03:49:40;;;;;;;3.67;3.37;;;13.60;99.90;;;;;;477986;248;28221;-70
2021/08/30 03:51:41;;;;;;;4.40;4.00;;;13.60;99.90;;;;;;477995;248;28387;-70
2021/08/30 03:53:42;;;;;;;4.37;3.97;;;13.60;99.90;;;;;;477982;248;28879;-71
2021/08/30 03:55:43;;;;;;;4.27;3.87;;;13.60;99.90;;;;;;477996;248;28396;-70
2021/08/30 03:57:45;;;;;;;3.60;3.30;;;13.60;99.90;;;;;;477990;248;28391;-70
2021/08/30 03:59:46;;;;;;;4.30;3.70;;;13.50;99.90;;;;;;477970;248;28228;-71
2021/08/30 04:01:47;;;;;;;4.20;3.80;;;13.50;99.90;;;;;;477971;248;29563;-70
2021/08/30 04:03:49;;;;;;;4.10;3.77;;;13.50;99.90;;;;;;478007;249;28748;-70
2021/08/30 04:05:50;;;;;;;4.10;3.80;;;13.50;99.90;;;;;;477985;248;28681;-70
2021/08/30 04:07:51;;;;;;;4.53;4.10;;;13.50;99.90;;;;;;477979;249;28583;-70
2021/08/30 04:09:52;;;;;;;4.10;3.80;;;13.50;99.90;;;;;;477970;249;28379;-70
2021/08/30 04:11:53;;;;;;;4.30;3.90;;;13.60;99.90;;;;;;477990;248;28251;-70
2021/08/30 04:13:55;;;;;;;3.87;3.57;;;13.60;99.90;;;;;;478023;248;28312;-71
2021/08/30 04:15:56;;;;;;;3.73;3.43;;;13.60;99.90;;;;;;478007;248;28464;-70
2021/08/30 04:17:57;;;;;;;3.80;3.50;;;13.60;99.90;;;;;;477960;249;28396;-70
2021/08/30 04:19:58;;;;;;;4.23;3.83;;;13.60;99.90;;;;;;477990;248;28335;-70
2021/08/30 04:22:00;;;;;;;4.00;3.60;;;13.60;99.90;;;;;;477956;248;28198;-70
2021/08/30 04:24:01;;;;;;;4.07;3.70;;;13.60;99.90;;;;;;477980;248;28301;-70
2021/08/30 04:26:02;;;;;;;4.47;4.07;;;13.60;99.90;;;;;;478003;248;28718;-70
2021/08/30 04:28:03;;;;;;;5.03;4.00;;;13.60;99.90;;;;;;477985;248;28751;-70
2021/08/30 04:30:05;;;;;;;6.37;4.30;;;13.70;99.90;;;;;;477958;248;28719;-70
2021/08/30 04:32:08;;;;;;;4.67;4.27;;;13.70;99.90;;;;;;477930;248;29064;-70
2021/08/30 04:34:07;;;;;;;4.37;3.97;;;13.70;99.90;;;;;;477857;249;28211;-70
2021/08/30 04:36:09;;;;;;;3.90;3.60;;;13.70;99.90;;;;;;478016;248;28227;-70
2021/08/30 04:38:12;;;;;;;4.50;4.07;;;13.70;99.90;;;;;;477929;249;28317;-70
2021/08/30 04:40:11;;;;;;;4.57;4.17;;;13.70;99.90;;;;;;477854;249;28367;-70
2021/08/30 04:42:12;;;;;;;4.93;3.70;;;13.70;99.90;;;;;;477999;248;28914;-70
2021/08/30 04:44:13;;;;;;;4.00;3.70;;;13.70;99.90;;;;;;477999;249;28860;-70
2021/08/30 04:46:15;;;;;;;4.73;4.33;;;13.70;99.90;;;;;;477995;248;28969;-70
2021/08/30 04:48:16;;;;;;;3.83;3.53;;;13.80;99.90;;;;;;477982;248;28626;-70
2021/08/30 04:50:17;;;;;;;4.23;3.83;;;13.70;99.90;;;;;;477954;249;28834;-70
2021/08/30 04:52:18;;;;;;;4.77;4.30;;;13.70;99.90;;;;;;478011;248;28691;-70
2021/08/30 04:54:21;;;;;;;4.00;3.70;;;13.80;99.90;;;;;;477968;248;28861;-70
2021/08/30 04:56:21;;;;;;;4.57;4.17;;;13.80;99.90;;;;;;477926;249;28369;-70
2021/08/30 04:58:22;;;;;;;4.00;3.70;;;13.80;99.90;;;;;;477973;248;28274;-70
2021/08/30 05:00:23;;;;;;;4.50;4.10;;;13.80;99.90;;;;;;477962;248;28298;-70
2021/08/30 05:02:25;;;;;;;4.80;4.30;;;13.80;99.90;;;;;;477989;248;28340;-70
2021/08/30 05:04:26;;;;;;;4.03;3.73;;;13.80;99.90;;;;;;477974;248;28322;-70
2021/08/30 05:06:27;;;;;;;4.73;4.23;;;13.80;99.90;;;;;;477981;248;28472;-71
2021/08/30 05:08:28;;;;;;;4.17;3.80;;;13.80;99.90;;;;;;477957;248;28208;-70
2021/08/30 05:10:30;;;;;;;4.17;3.77;;;13.80;99.90;;;;;;477985;248;28470;-70
2021/08/30 05:12:31;;;;;;;4.37;3.97;;;13.80;99.90;;;;;;477980;248;29720;-70
2021/08/30 05:14:34;;;;;;;4.17;3.87;;;13.80;99.90;;;;;;477973;248;28716;-71
2021/08/30 05:16:33;;;;;;;4.40;4.00;;;13.80;99.90;;;;;;477871;249;28812;-70
2021/08/30 05:18:35;;;;;;;5.37;4.87;;;13.70;99.90;;;;;;477969;248;28634;-70
2021/08/30 05:20:36;;;;;;;4.30;3.90;;;13.80;99.90;;;;;;477980;248;28597;-70
2021/08/30 05:22:37;;;;;;;4.27;3.87;;;13.80;99.90;;;;;;477961;248;28337;-70
2021/08/30 05:24:39;;;;;;;5.83;5.00;;;13.80;99.90;;;;;;478005;248;28195;-70
2021/08/30 05:26:40;;;;;;;4.70;4.30;;;13.80;99.90;;;;;;477923;248;28254;-70
2021/08/30 05:28:41;;;;;;;4.40;3.90;;;13.80;99.90;;;;;;478009;248;28310;-70
2021/08/30 05:30:42;;;;;;;5.93;5.33;;;13.80;99.90;;;;;;477985;249;28253;-70
2021/08/30 05:32:43;;;;;;;5.37;4.50;;;13.80;99.90;;;;;;477978;248;28181;-70
2021/08/30 05:34:45;;;;;;;4.40;4.00;;;13.80;99.90;;;;;;477960;248;28308;-70
2021/08/30 05:36:46;;;;;;;6.30;4.80;;;13.80;99.90;;;;;;477983;248;28309;-71
2021/08/30 05:38:47;;;;;;;5.00;4.50;;;13.80;99.90;;;;;;477965;249;28867;-70
2021/08/30 05:40:50;;;;;;;4.97;4.47;;;;;;;;;;477984;248;28911;-70
2021/08/30 05:42:51;;;;;;;6.27;4.73;;;13.90;99.90;;;;;;477982;248;26580;-70
2021/08/30 05:44:52;;;;;;;6.23;5.00;;;13.90;99.90;;;;;;478001;248;28364;-70
2021/08/30 05:46:53;;;;;;;6.03;5.13;;;13.90;99.90;;;;;;477984;248;28348;-70
2021/08/30 05:48:55;;;;;;;6.00;4.83;;;13.90;99.90;;;;;;477974;249;28360;-70
2021/08/30 05:50:56;;;;;;;4.90;4.40;;;13.90;99.90;;;;;;477960;248;28786;-70
2021/08/30 05:52:57;;;;;;;6.03;5.40;;;13.90;99.90;;;;;;477970;248;28800;-70
2021/08/30 05:54:58;;;;;;;4.50;4.10;;;13.90;99.90;;;;;;477975;249;28951;-70
2021/08/30 05:57:00;;;;;;;4.80;4.33;;;13.90;99.90;;;;;;477982;248;28748;-70
2021/08/30 05:59:01;;;;;;;5.73;5.00;;;13.90;99.90;;;;;;477964;248;28457;-70
2021/08/30 06:01:02;;;;;;;6.93;5.03;;;13.90;99.90;;;;;;477917;248;28346;-70
2021/08/30 06:03:03;;;;;;;5.33;4.70;;;14.00;99.90;;;;;;477992;248;28202;-70
2021/08/30 06:05:05;;;;;;;7.20;6.07;;;14.00;99.90;;;;;;477956;248;28389;-70
2021/08/30 06:07:06;;;;;;;7.50;5.37;;;14.00;99.90;;;;;;477953;248;28399;-70
2021/08/30 06:09:07;;;;;;;6.27;5.67;;;14.00;99.90;;;;;;477974;247;28294;-70
2021/08/30 06:11:08;;;;;;;6.43;5.20;;;14.00;99.90;;;;;;477958;248;28207;-70
2021/08/30 06:13:10;;;;;;;5.93;5.10;;;14.00;99.90;;;;;;478006;248;28201;-70
2021/08/30 06:15:11;;;;;;;6.50;5.87;;;14.00;99.90;;;;;;477971;248;28357;-70
2021/08/30 06:17:12;;;;;;;6.50;5.57;;;14.10;99.90;;;;;;477980;249;28803;-70
2021/08/30 06:19:13;;;;;;;6.67;5.97;;;14.00;99.90;;;;;;477980;248;28787;-70
2021/08/30 06:21:15;;;;;;;6.90;5.70;;;14.10;99.90;;;;;;481664;246;28719;-70
2021/08/30 06:23:16;;;;;;;6.70;6.00;;;14.10;99.90;;;;;;482586;246;28139;-70
2021/08/30 06:25:17;;;;;;;7.07;6.37;;;14.20;99.90;;;;;;481105;247;28307;-70
2021/08/30 06:27:20;;;;;;;6.53;5.87;;;14.30;99.90;;;;;;481073;247;28111;-70
2021/08/30 06:29:20;;;;;;;8.63;6.43;;;14.40;99.90;;;;;;480993;247;28389;-71
2021/08/30 06:31:21;;;;;;;5.97;5.20;;;14.40;99.90;;;;;;481063;247;28353;-70
2021/08/30 06:33:22;;;;;;;10.57;6.27;;;14.40;99.90;;;;;;481072;247;28233;-70
2021/08/30 06:35:23;;;;;;;7.47;5.70;;;14.30;99.90;;;;;;481096;247;28246;-71
2021/08/30 06:37:25;;;;;;;8.20;6.30;;;14.40;99.90;;;;;;481107;247;28345;-69
2021/08/30 06:39:26;;;;;;;6.67;5.87;;;14.40;99.90;;;;;;481105;247;28147;-69
2021/08/30 06:41:27;;;;;;;9.53;7.13;;;14.40;99.90;;;;;;481101;247;28774;-68
2021/08/30 06:43:28;;;;;;;7.23;6.47;;;14.40;99.90;;;;;;481117;247;28731;-69
2021/08/30 06:45:30;;;;;;;8.87;7.17;;;14.40;99.90;;;;;;481139;247;28806;-69
2021/08/30 06:47:31;;;;;;;7.80;6.60;;;14.40;99.90;;;;;;481138;247;28449;-69
2021/08/30 06:49:32;;;;;;;7.30;6.50;;;14.50;99.90;;;;;;481123;247;28444;-69
2021/08/30 06:51:33;;;;;;;7.63;6.60;;;14.50;99.90;;;;;;481114;247;28350;-69
2021/08/30 06:53:35;;;;;;;7.17;6.43;;;14.60;99.90;;;;;;481091;247;28133;-69
2021/08/30 06:55:36;;;;;;;7.53;6.77;;;14.50;99.90;;;;;;481131;247;28438;-71
2021/08/30 06:57:37;;;;;;;8.30;6.97;;;14.50;99.90;;;;;;481119;247;28374;-70
2021/08/30 06:59:38;;;;;;;8.33;7.10;;;14.60;99.90;;;;;;481104;247;28441;-70
2021/08/30 07:01:40;;;;;;;9.17;7.87;;;14.60;99.90;;;;;;481086;247;28861;-71
2021/08/30 07:03:41;;;;;;;9.93;8.23;;;14.60;99.90;;;;;;481058;247;28520;-71
2021/08/30 07:05:42;;;;;;;8.23;7.43;;;14.60;99.90;;;;;;480968;247;29017;-71
2021/08/30 07:07:43;;;;;;;9.67;7.30;;;14.60;99.90;;;;;;481115;247;29214;-71
2021/08/30 07:09:45;;;;;;;8.80;7.90;;;14.70;99.90;;;;;;481095;247;29265;-71
2021/08/30 07:11:46;;;;;;;7.87;6.97;;;14.70;99.90;;;;;;481086;247;28535;-71
2021/08/30 07:13:47;;;;;;;9.43;7.70;;;14.80;99.90;;;;;;481061;247;28406;-71
2021/08/30 07:15:49;;;;;;;9.37;8.23;;;14.70;99.90;;;;;;481122;247;28467;-72
2021/08/30 07:17:50;;;;;;;9.77;8.23;;;14.70;99.90;;;;;;481087;247;28831;-70
2021/08/30 07:19:52;;;;;;;9.37;7.60;;;14.90;99.90;;;;;;481094;247;28858;-70
2021/08/30 07:21:53;;;;;;;8.60;7.03;;;;;;;;;;481048;247;28882;-70
2021/08/30 07:23:54;;;;;;;9.57;8.63;;;14.80;99.90;;;;;;481048;247;27400;-71
2021/08/30 07:25:56;;;;;;;9.23;8.23;;;14.70;99.90;;;;;;481063;247;28374;-72
2021/08/30 07:27:57;;;;;;;9.63;8.17;;;14.70;99.90;;;;;;481089;247;28879;-69
2021/08/30 07:29:58;;;;;;;10.07;9.00;;;14.70;99.90;;;;;;481076;247;28534;-69
2021/08/30 07:31:59;;;;;;;10.63;9.53;;;14.70;99.90;;;;;;481069;247;28379;-70
2021/08/30 07:34:01;;;;;;;11.17;8.90;;;14.80;99.90;;;;;;481013;247;29232;-69
2021/08/30 07:36:02;;;;;;;10.37;8.53;;;14.70;99.90;;;;;;481066;247;29268;-70
2021/08/30 07:38:03;;;;;;;10.90;8.47;;;14.70;99.90;;;;;;481089;247;29407;-69
2021/08/30 07:40:04;;;;;;;9.53;7.80;;;14.80;99.90;;;;;;481095;247;28753;-71
2021/08/30 07:42:06;;;;;;;10.97;9.60;;;14.80;99.90;;;;;;481079;247;28787;-69
2021/08/30 07:44:07;;;;;;;11.07;8.63;;;14.80;99.90;;;;;;481040;247;28938;-68
2021/08/30 07:46:08;;;;;;;11.00;8.33;;;14.80;99.90;;;;;;481061;247;28851;-69
2021/08/30 07:48:09;;;;;;;10.40;7.73;;;14.80;99.90;;;;;;481085;247;28810;-69
2021/08/30 07:50:11;;;;;;;8.27;7.47;;;14.80;99.90;;;;;;481078;247;28749;-69
2021/08/30 07:52:12;;;;;;;8.87;7.77;;;14.80;99.90;;;;;;481090;247;28825;-69
2021/08/30 07:54:13;;;;;;;9.50;8.50;;;14.80;99.90;;;;;;481046;247;29628;-69
2021/08/30 07:56:15;;;;;;;10.43;8.37;;;14.80;99.90;;;;;;481094;247;29217;-69
2021/08/30 07:58:16;;;;;;;9.43;8.40;;;14.90;99.90;;;;;;481119;247;29444;-69
2021/08/30 08:00:17;;;;;;;10.77;8.33;;;14.90;99.90;;;;;;481109;247;28898;-69
2021/08/30 08:02:18;;;;;;;8.93;7.80;;;14.90;99.90;;;;;;481097;247;28935;-69
2021/08/30 08:04:19;;;;;;;12.00;9.60;;;15.00;99.90;;;;;;481073;247;28855;-70
2021/08/30 08:06:21;;;;;;;10.07;8.00;;;15.00;99.90;;;;;;481107;247;28823;-71
2021/08/30 08:08:22;;;;;;;9.87;8.00;;;15.10;99.90;;;;;;481102;247;28458;-70
2021/08/30 08:10:23;;;;;;;10.23;8.50;;;15.20;99.90;;;;;;481093;247;28757;-71
2021/08/30 08:12:25;;;;;;;9.03;7.53;;;15.30;99.90;;;;;;481065;247;28892;-71
2021/08/30 08:14:26;;;;;;;13.97;8.93;;;15.40;99.90;;;;;;481102;247;29305;-71
2021/08/30 08:16:27;;;;;;;10.97;9.43;;;15.40;99.90;;;;;;481087;247;29209;-71
2021/08/30 08:18:28;;;;;;;13.07;10.47;;;15.30;99.90;;;;;;481063;247;29377;-71
2021/08/30 08:20:31;;;;;;;12.53;10.10;;;15.30;99.90;;;;;;481073;247;28930;-71
2021/08/30 08:22:34;;;;;;;10.17;9.10;;;15.40;99.90;;;;;;481012;247;28875;-71
2021/08/30 08:24:32;;;;;;;17.30;9.57;;;15.50;99.90;;;;;;480920;247;28876;-71
2021/08/30 08:26:33;;;;;;;10.13;8.37;;;15.60;99.90;;;;;;481113;247;28451;-71
2021/08/30 08:28:35;;;;;;;10.87;8.80;;;15.50;99.90;;;;;;481102;247;28818;-71
2021/08/30 08:30:36;;;;;;;11.10;9.10;;;15.50;99.90;;;;;;481093;247;28820;-71
2021/08/30 08:32:39;;;;;;;11.00;9.20;;;15.60;99.90;;;;;;481050;247;29344;-72
2021/08/30 08:34:38;;;;;;;10.60;8.80;;;15.50;99.90;;;;;;480982;247;30350;-72
2021/08/30 08:36:40;;;;;;;9.77;8.77;;;15.30;99.90;;;;;;481081;247;28848;-72
2021/08/30 08:38:41;;;;;;;13.23;10.00;;;15.20;99.90;;;;;;481081;247;28824;-70
2021/08/30 08:40:42;;;;;;;10.77;8.60;;;15.10;99.90;;;;;;481082;247;28792;-70
2021/08/30 08:42:43;;;;;;;10.23;8.97;;;15.20;99.90;;;;;;481074;247;28857;-71
2021/08/30 08:44:45;;;;;;;12.90;9.90;;;15.20;99.90;;;;;;481057;247;28801;-71
2021/08/30 08:46:46;;;;;;;11.67;9.90;;;15.20;99.90;;;;;;480728;247;28993;-70
2021/08/30 08:48:47;;;;;;;12.63;9.30;;;15.20;99.90;;;;;;480898;247;28786;-70
2021/08/30 08:50:48;;;;;;;12.20;9.27;;;15.30;99.90;;;;;;481098;247;30054;-70
2021/08/30 08:52:50;;;;;;;9.90;8.47;;;15.30;99.90;;;;;;481123;247;29193;-70
2021/08/30 08:54:51;;;;;;;11.77;9.80;;;15.20;99.90;;;;;;481143;247;28823;-71
2021/08/30 08:56:52;;;;;;;11.37;9.80;;;15.30;99.90;;;;;;481113;247;28788;-71
2021/08/30 08:58:53;;;;;;;11.63;9.30;;;15.20;99.90;;;;;;481093;247;29049;-69
2021/08/30 09:00:55;;;;;;;10.53;9.43;;;15.20;99.90;;;;;;481083;247;28753;-71
2021/08/30 09:02:56;;;;;;;12.60;9.07;;;15.20;99.90;;;;;;481105;247;28891;-71
2021/08/30 09:04:58;;;;;;;10.23;8.53;;;15.30;99.90;;;;;;481067;247;28868;-71
2021/08/30 09:06:58;;;;;;;9.37;8.10;;;15.30;99.90;;;;;;480978;247;28758;-71
2021/08/30 09:09:00;;;;;;;12.47;9.70;;;15.20;99.90;;;;;;480890;247;29429;-72
2021/08/30 09:11:01;;;;;;;10.43;9.23;;;15.30;99.90;;;;;;480819;247;30197;-69
2021/08/30 09:13:02;;;;;;;13.33;9.30;;;15.30;99.90;;;;;;480982;247;29255;-69
2021/08/30 09:15:03;;;;;;;14.20;9.90;;;15.40;99.90;;;;;;480386;247;28783;-69
2021/08/30 09:17:05;;;;;;;11.93;10.47;;;15.40;99.90;;;;;;488080;238;28907;-71
2021/08/30 09:19:06;;;;;;;12.07;9.30;;;15.50;99.90;;;;;;489800;242;28952;-71
2021/08/30 09:21:07;;;;;;;11.00;8.10;;;15.70;99.90;;;;;;487164;241;28762;-69
2021/08/30 09:23:09;;;;;;;9.90;8.33;;;15.80;99.90;;;;;;483797;246;28776;-69
2021/08/30 09:25:10;;;;;;;13.00;9.60;;;15.70;99.90;;;;;;484219;245;28886;-71
2021/08/30 09:27:11;;;;;;;9.43;8.43;;;15.70;99.90;;;;;;484227;245;29256;-71
2021/08/30 09:29:12;;;;;;;12.30;8.97;;;15.90;99.90;;;;;;484223;245;29301;-71
2021/08/30 09:31:13;;;;;;;11.00;9.07;;;16.10;99.90;;;;;;477127;241;30325;-71
2021/08/30 09:33:15;;;;;;;10.07;8.97;;;15.90;99.90;;;;;;468429;253;28879;-71
2021/08/30 09:35:16;;;;;;;10.57;9.03;;;16.00;99.90;;;;;;476944;246;28912;-71
2021/08/30 09:37:18;;;;;;;11.20;8.17;;;16.10;99.90;;;;;;472321;252;28913;-71
2021/08/30 09:39:18;;;;;;;10.37;9.07;;;16.00;99.90;;;;;;472138;252;28916;-71
2021/08/30 09:41:20;;;;;;;9.60;8.23;;;16.00;99.90;;;;;;472302;252;28944;-71
2021/08/30 09:43:21;;;;;;;8.77;7.87;;;16.20;99.90;;;;;;472287;252;28886;-71
2021/08/30 09:45:22;;;;;;;12.07;9.10;;;16.40;99.90;;;;;;472142;252;28922;-71
2021/08/30 09:47:23;;;;;;;9.60;8.27;;;16.30;99.90;;;;;;472250;252;29352;-70
2021/08/30 09:49:25;;;;;;;8.40;7.50;;;16.30;99.90;;;;;;472201;252;29383;-72
2021/08/30 09:51:28;;;;;;;10.07;8.27;;;16.40;99.90;;;;;;472157;252;29464;-72
2021/08/30 09:53:27;;;;;;;10.20;7.60;;;16.40;99.90;;;;;;472217;252;28949;-71
2021/08/30 09:55:28;;;;;;;8.73;7.83;;;16.50;99.90;;;;;;472270;252;28951;-71
2021/08/30 09:57:30;;;;;;;8.73;7.83;;;16.50;99.90;;;;;;472241;252;28919;-69
2021/08/30 09:59:31;;;;;;;8.23;7.43;;;16.60;99.90;;;;;;472051;252;29024;-71
2021/08/30 10:01:32;;;;;;;10.93;9.20;;;16.70;99.90;;;;;;472277;252;28974;-71
2021/08/30 10:03:40;;;;;;;9.40;8.27;;;16.60;99.90;;;;;;472248;252;28985;-70
2021/08/30 10:05:41;;;;;;;9.73;8.37;;;16.80;99.90;;;;;;472224;252;29394;-71
2021/08/30 10:07:42;;;;;;;9.80;8.80;;;16.90;99.90;;;;;;472237;252;29387;-71
2021/08/30 10:09:43;;;;;;;10.13;8.63;;;16.70;99.90;;;;;;472296;252;28921;-71
2021/08/30 10:11:44;;;;;;;8.80;7.73;;;16.70;99.90;;;;;;472227;251;28961;-71
2021/08/30 10:13:46;;;;;;;10.10;8.87;;;16.80;99.90;;;;;;472256;252;28887;-71
2021/08/30 10:15:47;;;;;;;9.37;8.37;;;16.60;99.90;;;;;;472283;252;28931;-71
2021/08/30 10:17:48;;;;;;;13.70;9.40;;;16.60;99.90;;;;;;472292;252;28998;-71
2021/08/30 10:19:49;;;;;;;9.63;8.57;;;16.60;99.90;;;;;;472251;252;29021;-71
2021/08/30 10:21:51;;;;;;;11.13;9.07;;;16.60;99.90;;;;;;472241;252;29310;-71
2021/08/30 10:23:52;;;;;;;9.23;8.20;;;16.50;99.90;;;;;;472256;251;29421;-69
2021/08/30 10:25:53;;;;;;;10.40;8.93;;;16.60;99.90;;;;;;472212;252;29617;-69
2021/08/30 10:27:55;;;;;;;10.10;8.00;;;16.70;99.90;;;;;;472318;252;29404;-69
2021/08/30 10:29:56;;;;;;;9.87;8.40;;;16.70;99.90;;;;;;472286;252;28921;-69
2021/08/30 10:31:57;;;;;;;9.20;8.07;;;16.70;99.90;;;;;;472254;252;29005;-69
2021/08/30 10:33:58;;;;;;;9.13;8.23;;;16.70;99.90;;;;;;472223;252;28934;-69
2021/08/30 10:36:00;;;;;;;8.73;7.80;;;16.70;99.90;;;;;;472238;252;29037;-70